< Typhoon 195605 1956 Season Typhoon 195607 >
Typhoon 195606 (WANDA)
General InformationTrack Information on Google Maps || Disaster Info.ResourceGoogle EarthGE AnimationAtom FeedGeoJSON
Detalied Best Track (Time Zone = UTC)
Year Month Day Hour Lat. Long. Pressure (hPa) Wind (kt) Class Image Chart
1956 7 25 00 14.9 146.1 1008 0 2 -- Chart
1956 7 25 06 15.5 146.1 1006 0 2 -- Chart
1956 7 25 12 16.2 146.2 1006 0 2 -- Chart
1956 7 25 18 17.0 146.4 1005 0 2 -- Chart
1956 7 26 00 17.8 146.4 1004 0 2 -- Chart
1956 7 26 06 18.6 146.3 1004 0 2 -- Chart
1956 7 26 12 19.3 146.0 1004 0 2 -- Chart
1956 7 26 18 19.9 145.5 1000 0 2 -- Chart
1956 7 27 00 20.1 144.7 997 0 9 -- Chart
1956 7 27 06 20.3 143.7 992 0 9 -- Chart
1956 7 27 12 20.3 142.8 988 0 9 -- Chart
1956 7 27 18 20.3 142.0 985 0 9 -- Chart
1956 7 28 00 20.2 141.0 985 0 9 -- Chart
1956 7 28 06 20.1 140.3 970 0 9 -- Chart
1956 7 28 12 20.1 139.3 960 0 9 -- Chart
1956 7 28 18 20.3 138.3 950 0 9 -- Chart
1956 7 29 00 20.5 137.5 945 0 9 -- Chart
1956 7 29 06 20.8 136.5 935 0 9 -- Chart
1956 7 29 12 21.1 135.4 930 0 9 -- Chart
1956 7 29 18 21.5 134.2 930 0 9 -- Chart
1956 7 30 00 21.7 133.2 920 0 9 -- Chart
1956 7 30 06 22.0 132.1 915 0 9 -- Chart
1956 7 30 12 22.3 130.8 915 0 9 -- Chart
1956 7 30 18 22.6 129.4 915 0 9 -- Chart
1956 7 31 00 22.8 128.3 915 0 9 -- Chart
1956 7 31 06 23.4 127.4 915 0 9 -- Chart
1956 7 31 12 23.9 126.5 915 0 9 -- Chart
1956 7 31 18 24.9 125.9 920 0 9 -- Chart
1956 8 1 00 25.9 124.9 920 0 9 -- Chart
1956 8 1 06 26.9 123.8 920 0 9 -- Chart
1956 8 1 12 28.1 123.0 925 0 9 -- Chart
1956 8 1 18 29.2 122.2 925 0 9 -- Chart
1956 8 2 00 29.8 120.5 940 0 9 -- Chart
1956 8 2 06 31.1 118.8 965 0 9 -- Chart
1956 8 2 12 31.9 117.2 975 0 9 -- Chart
1956 8 2 18 32.5 116.5 976 0 9 -- Chart
1956 8 3 00 33.1 115.5 982 0 9 -- Chart
1956 8 3 06 33.6 114.8 986 0 9 -- Chart
1956 8 3 12 34.0 114.0 990 0 9 -- Chart
1956 8 3 18 34.5 113.4 992 0 9 -- Chart
1956 8 4 00 35.0 113.0 996 0 6 -- Chart
Japan Meteorological Agency Best Track Data | Correction Date : 1989-06-01
< Typhoon 195605 1956 Season Typhoon 195607 >

Help